sensor_id;sensor_type;location;lat;lon;timestamp;pressure;altitude;pressure_sealevel;temperature;humidity
75923;BME280;64602;47.542;19.090;2023-01-10T04:59:32;99115.19;;;6.50;94.05
75923;BME280;64602;47.542;19.090;2023-01-10T05:04:34;99120.53;;;6.45;94.12
75923;BME280;64602;47.542;19.090;2023-01-10T05:09:36;99121.34;;;6.45;94.05
75923;BME280;64602;47.542;19.090;2023-01-10T05:14:38;99145.16;;;6.53;94.06
75923;BME280;64602;47.542;19.090;2023-01-10T05:19:40;99139.97;;;6.47;94.09
75923;BME280;64602;47.542;19.090;2023-01-10T05:24:42;99154.84;;;6.54;94.14
75923;BME280;64602;47.542;19.090;2023-01-10T05:29:44;99160.25;;;6.54;94.14
75923;BME280;64602;47.542;19.090;2023-01-10T05:34:46;99181.28;;;6.57;94.18
75923;BME280;64602;47.542;19.090;2023-01-10T05:39:48;99182.38;;;6.56;94.16
75923;BME280;64602;47.542;19.090;2023-01-10T05:44:50;99170.72;;;6.51;94.19
75923;BME280;64602;47.542;19.090;2023-01-10T05:49:52;99177.81;;;6.62;94.27
75923;BME280;64602;47.542;19.090;2023-01-10T05:54:54;99170.25;;;6.59;94.20
75923;BME280;64602;47.542;19.090;2023-01-10T05:59:56;99181.31;;;6.62;94.21
75923;BME280;64602;47.542;19.090;2023-01-10T06:04:58;99177.78;;;6.57;94.24
75923;BME280;64602;47.542;19.090;2023-01-10T06:10:01;99194.75;;;6.57;94.19
75923;BME280;64602;47.542;19.090;2023-01-10T06:15:03;99214.25;;;6.64;94.25
75923;BME280;64602;47.542;19.090;2023-01-10T06:20:06;99221.47;;;6.59;94.29
75923;BME280;64602;47.542;19.090;2023-01-10T06:25:09;99227.66;;;6.59;94.34
75923;BME280;64602;47.542;19.090;2023-01-10T06:30:12;99239.53;;;6.58;94.32
75923;BME280;64602;47.542;19.090;2023-01-10T06:35:14;99254.91;;;6.58;94.17
75923;BME280;64602;47.542;19.090;2023-01-10T06:40:18;99255.66;;;6.53;93.94
75923;BME280;64602;47.542;19.090;2023-01-10T06:45:21;99264.75;;;6.47;93.86
75923;BME280;64602;47.542;19.090;2023-01-10T06:50:23;99255.75;;;6.36;93.61
75923;BME280;64602;47.542;19.090;2023-01-10T06:55:25;99253.94;;;6.20;93.46
75923;BME280;64602;47.542;19.090;2023-01-10T07:00:28;99267.97;;;6.22;93.34
75923;BME280;64602;47.542;19.090;2023-01-10T07:05:32;99290.03;;;6.19;93.40
75923;BME280;64602;47.542;19.090;2023-01-10T07:10:34;99298.91;;;6.19;93.39
75923;BME280;64602;47.542;19.090;2023-01-10T07:15:36;99295.84;;;6.11;93.33
75923;BME280;64602;47.542;19.090;2023-01-10T07:20:38;99313.00;;;6.05;93.05
75923;BME280;64602;47.542;19.090;2023-01-10T07:25:40;99334.78;;;6.03;93.12
75923;BME280;64602;47.542;19.090;2023-01-10T07:30:43;99333.41;;;6.01;93.23
75923;BME280;64602;47.542;19.090;2023-01-10T07:35:45;99348.31;;;6.08;93.35
75923;BME280;64602;47.542;19.090;2023-01-10T07:40:47;99360.25;;;6.12;93.34
75923;BME280;64602;47.542;19.090;2023-01-10T07:45:49;99356.97;;;6.10;93.30
75923;BME280;64602;47.542;19.090;2023-01-10T07:50:58;99384.22;;;6.14;93.00
75923;BME280;64602;47.542;19.090;2023-01-10T07:56:02;99397.94;;;6.12;92.90
75923;BME280;64602;47.542;19.090;2023-01-10T08:01:05;99394.53;;;6.00;92.84
75923;BME280;64602;47.542;19.090;2023-01-10T08:06:09;99417.78;;;6.06;92.91
75923;BME280;64602;47.542;19.090;2023-01-10T08:11:12;99416.31;;;5.98;92.70
75923;BME280;64602;47.542;19.090;2023-01-10T08:16:14;99430.88;;;5.97;92.67
75923;BME280;64602;47.542;19.090;2023-01-10T08:21:16;99452.87;;;5.94;92.50
75923;BME280;64602;47.542;19.090;2023-01-10T08:26:18;99463.06;;;5.92;92.80
75923;BME280;64602;47.542;19.090;2023-01-10T08:31:20;99472.56;;;5.95;92.81
75923;BME280;64602;47.542;19.090;2023-01-10T08:36:23;99494.66;;;5.97;92.90
75923;BME280;64602;47.542;19.090;2023-01-10T08:41:25;99488.72;;;5.95;92.78
75923;BME280;64602;47.542;19.090;2023-01-10T08:46:28;99497.41;;;5.85;92.35
75923;BME280;64602;47.542;19.090;2023-01-10T08:51:30;99513.06;;;5.88;92.21
75923;BME280;64602;47.542;19.090;2023-01-10T08:56:32;99516.97;;;5.81;92.15
75923;BME280;64602;47.542;19.090;2023-01-10T09:01:34;99526.81;;;5.75;92.10
75923;BME280;64602;47.542;19.090;2023-01-10T09:06:37;99534.34;;;5.73;92.05
75923;BME280;64602;47.542;19.090;2023-01-10T09:11:39;99571.06;;;5.79;92.07
75923;BME280;64602;47.542;19.090;2023-01-10T09:16:42;99573.31;;;5.70;92.00
75923;BME280;64602;47.542;19.090;2023-01-10T09:21:45;99576.00;;;5.70;92.03
75923;BME280;64602;47.542;19.090;2023-01-10T09:26:47;99594.84;;;5.70;91.92
75923;BME280;64602;47.542;19.090;2023-01-10T09:31:49;99601.31;;;5.69;91.16
75923;BME280;64602;47.542;19.090;2023-01-10T09:36:52;99621.63;;;5.77;90.93
75923;BME280;64602;47.542;19.090;2023-01-10T09:53:11;99648.13;;;5.68;90.40
75923;BME280;64602;47.542;19.090;2023-01-10T09:58:16;99661.03;;;5.54;90.16
75923;BME280;64602;47.542;19.090;2023-01-10T10:03:23;99658.22;;;5.49;90.35
75923;BME280;64602;47.542;19.090;2023-01-10T10:08:29;99686.78;;;5.50;90.21
75923;BME280;64602;47.542;19.090;2023-01-10T10:24:20;99686.44;;;5.47;89.62
75923;BME280;64602;47.542;19.090;2023-01-10T10:34:56;99686.19;;;5.48;89.66
75923;BME280;64602;47.542;19.090;2023-01-10T10:50:24;99713.56;;;5.33;89.36
75923;BME280;64602;47.542;19.090;2023-01-10T10:55:34;99730.88;;;5.26;89.48
75923;BME280;64602;47.542;19.090;2023-01-10T11:00:39;99732.41;;;5.22;89.57
75923;BME280;64602;47.542;19.090;2023-01-10T11:05:44;99739.06;;;5.19;89.71
75923;BME280;64602;47.542;19.090;2023-01-10T11:10:56;99749.59;;;5.21;89.60
75923;BME280;64602;47.542;19.090;2023-01-10T11:16:06;99774.84;;;5.31;89.81
75923;BME280;64602;47.542;19.090;2023-01-10T11:21:11;99782.50;;;5.34;89.96
75923;BME280;64602;47.542;19.090;2023-01-10T11:26:54;99782.00;;;5.26;89.59
75923;BME280;64602;47.542;19.090;2023-01-10T11:31:49;99786.00;;;5.35;89.58
75923;BME280;64602;47.542;19.090;2023-01-10T11:37:24;99784.94;;;5.24;89.56
75923;BME280;64602;47.542;19.090;2023-01-10T11:42:30;99802.94;;;5.35;89.64
75923;BME280;64602;47.542;19.090;2023-01-10T11:47:32;99797.22;;;5.32;89.59
75923;BME280;64602;47.542;19.090;2023-01-10T11:52:43;99810.69;;;5.44;89.66
75923;BME280;64602;47.542;19.090;2023-01-10T11:57:55;99807.53;;;5.47;89.35
75923;BME280;64602;47.542;19.090;2023-01-10T12:02:58;99820.06;;;5.53;89.37
75923;BME280;64602;47.542;19.090;2023-01-10T12:08:03;99818.75;;;5.55;89.41
75923;BME280;64602;47.542;19.090;2023-01-10T12:13:15;99834.00;;;5.62;89.45
75923;BME280;64602;47.542;19.090;2023-01-10T12:18:17;99829.09;;;5.59;89.38
75923;BME280;64602;47.542;19.090;2023-01-10T12:23:21;99851.78;;;5.63;89.31
75923;BME280;64602;47.542;19.090;2023-01-10T12:28:29;99848.37;;;5.67;89.68
75923;BME280;64602;47.542;19.090;2023-01-10T12:33:34;99835.50;;;5.57;89.53
75923;BME280;64602;47.542;19.090;2023-01-10T12:38:59;99853.06;;;5.60;89.40
75923;BME280;64602;47.542;19.090;2023-01-10T12:44:15;99883.62;;;5.66;89.45
75923;BME280;64602;47.542;19.090;2023-01-10T12:49:24;99878.81;;;5.56;89.71
75923;BME280;64602;47.542;19.090;2023-01-10T12:54:29;99894.72;;;5.57;89.87
75923;BME280;64602;47.542;19.090;2023-01-10T12:59:38;99909.72;;;5.65;89.42
75923;BME280;64602;47.542;19.090;2023-01-10T13:04:44;99903.03;;;5.56;89.39
75923;BME280;64602;47.542;19.090;2023-01-10T13:09:50;99910.53;;;5.54;89.19
75923;BME280;64602;47.542;19.090;2023-01-10T13:15:09;99920.69;;;5.52;88.95
75923;BME280;64602;47.542;19.090;2023-01-10T13:25:33;99929.59;;;5.52;88.99
75923;BME280;64602;47.542;19.090;2023-01-10T13:30:38;99937.06;;;5.50;88.56
75923;BME280;64602;47.542;19.090;2023-01-10T13:35:44;99955.31;;;5.48;88.66
75923;BME280;64602;47.542;19.090;2023-01-10T13:40:57;99952.63;;;5.48;88.73
75923;BME280;64602;47.542;19.090;2023-01-10T13:51:21;99991.03;;;5.55;88.56
75923;BME280;64602;47.542;19.090;2023-01-10T13:56:49;100009.06;;;5.55;88.60
75923;BME280;64602;47.542;19.090;2023-01-10T14:01:53;100006.16;;;5.56;88.51
75923;BME280;64602;47.542;19.090;2023-01-10T14:12:29;100009.72;;;6.23;87.23
75923;BME280;64602;47.542;19.090;2023-01-10T14:17:36;100010.75;;;5.98;86.02
75923;BME280;64602;47.542;19.090;2023-01-10T14:22:40;100023.94;;;5.88;86.72
75923;BME280;64602;47.542;19.090;2023-01-10T14:27:48;100035.12;;;5.73;86.80
75923;BME280;64602;47.542;19.090;2023-01-10T14:32:54;100045.97;;;5.66;87.33
75923;BME280;64602;47.542;19.090;2023-01-10T14:38:00;100062.25;;;5.71;87.12
75923;BME280;64602;47.542;19.090;2023-01-10T14:43:14;100057.87;;;5.59;87.33
75923;BME280;64602;47.542;19.090;2023-01-10T14:48:38;100069.09;;;5.55;87.55
75923;BME280;64602;47.542;19.090;2023-01-10T14:53:41;100083.59;;;5.54;87.46
75923;BME280;64602;47.542;19.090;2023-01-10T14:58:43;100087.78;;;5.50;87.31
75923;BME280;64602;47.542;19.090;2023-01-10T15:03:45;100087.78;;;5.50;87.34
75923;BME280;64602;47.542;19.090;2023-01-10T15:08:59;100097.94;;;5.48;87.22
75923;BME280;64602;47.542;19.090;2023-01-10T15:14:04;100117.53;;;5.55;86.96
75923;BME280;64602;47.542;19.090;2023-01-10T15:19:17;100113.28;;;5.48;87.07
75923;BME280;64602;47.542;19.090;2023-01-10T15:24:34;100123.84;;;5.49;86.94
75923;BME280;64602;47.542;19.090;2023-01-10T15:29:39;100137.22;;;5.56;87.05
75923;BME280;64602;47.542;19.090;2023-01-10T15:34:49;100144.09;;;5.52;86.84
75923;BME280;64602;47.542;19.090;2023-01-10T15:39:53;100162.34;;;5.50;87.50
75923;BME280;64602;47.542;19.090;2023-01-10T15:44:56;100167.94;;;5.48;87.58
75923;BME280;64602;47.542;19.090;2023-01-10T15:49:59;100171.63;;;5.54;87.11
75923;BME280;64602;47.542;19.090;2023-01-10T15:55:19;100192.91;;;5.55;86.75
75923;BME280;64602;47.542;19.090;2023-01-10T16:00:21;100191.28;;;5.54;86.55
75923;BME280;64602;47.542;19.090;2023-01-10T16:05:24;100189.47;;;5.48;86.63
75923;BME280;64602;47.542;19.090;2023-01-10T16:10:26;100205.56;;;5.55;86.79
75923;BME280;64602;47.542;19.090;2023-01-10T16:15:30;100209.31;;;5.54;86.80
75923;BME280;64602;47.542;19.090;2023-01-10T16:20:38;100215.50;;;5.54;86.15
75923;BME280;64602;47.542;19.090;2023-01-10T16:25:45;100205.84;;;5.47;86.40
75923;BME280;64602;47.542;19.090;2023-01-10T16:30:48;100227.34;;;5.53;86.30
75923;BME280;64602;47.542;19.090;2023-01-10T16:35:55;100214.75;;;5.47;86.13
75923;BME280;64602;47.542;19.090;2023-01-10T16:41:02;100235.97;;;5.55;85.93
75923;BME280;64602;47.542;19.090;2023-01-10T16:46:23;100226.47;;;5.53;85.24
75923;BME280;64602;47.542;19.090;2023-01-10T16:51:28;100234.34;;;5.54;85.08
75923;BME280;64602;47.542;19.090;2023-01-10T16:56:31;100263.22;;;5.66;84.33
75923;BME280;64602;47.542;19.090;2023-01-10T17:01:37;100262.38;;;5.65;84.36
75923;BME280;64602;47.542;19.090;2023-01-10T17:06:40;100261.13;;;5.68;84.00
75923;BME280;64602;47.542;19.090;2023-01-10T17:11:42;100268.78;;;5.71;83.16
75923;BME280;64602;47.542;19.090;2023-01-10T17:16:44;100272.28;;;5.71;83.11
75923;BME280;64602;47.542;19.090;2023-01-10T17:21:47;100270.41;;;5.72;83.09
75923;BME280;64602;47.542;19.090;2023-01-10T17:26:49;100286.50;;;5.78;82.74
75923;BME280;64602;47.542;19.090;2023-01-10T17:31:51;100278.28;;;5.73;82.73
75923;BME280;64602;47.542;19.090;2023-01-10T17:36:53;100295.59;;;5.77;82.24
75923;BME280;64602;47.542;19.090;2023-01-10T17:41:55;100303.53;;;5.72;82.07
75923;BME280;64602;47.542;19.090;2023-01-10T17:46:58;100316.72;;;5.81;81.78
75923;BME280;64602;47.542;19.090;2023-01-10T17:52:00;100325.41;;;5.83;81.18
75923;BME280;64602;47.542;19.090;2023-01-10T17:57:03;100332.44;;;5.84;81.39
75923;BME280;64602;47.542;19.090;2023-01-10T18:02:07;100316.78;;;5.74;81.73
75923;BME280;64602;47.542;19.090;2023-01-10T18:07:13;100333.31;;;5.77;81.72
75923;BME280;64602;47.542;19.090;2023-01-10T18:12:15;100322.22;;;5.67;81.98
75923;BME280;64602;47.542;19.090;2023-01-10T18:17:17;100353.22;;;5.76;81.66
75923;BME280;64602;47.542;19.090;2023-01-10T18:22:19;100354.47;;;5.74;81.75
75923;BME280;64602;47.542;19.090;2023-01-10T18:27:57;100344.78;;;5.73;80.82
75923;BME280;64602;47.542;19.090;2023-01-10T18:33:01;100344.97;;;5.71;80.70
75923;BME280;64602;47.542;19.090;2023-01-10T18:38:03;100362.28;;;5.82;79.98
75923;BME280;64602;47.542;19.090;2023-01-10T18:43:05;100359.22;;;5.78;79.27
75923;BME280;64602;47.542;19.090;2023-01-10T18:48:07;100374.41;;;5.91;79.07
75923;BME280;64602;47.542;19.090;2023-01-10T18:53:09;100381.69;;;5.91;79.11
75923;BME280;64602;47.542;19.090;2023-01-10T18:58:11;100383.31;;;5.92;79.31
75923;BME280;64602;47.542;19.090;2023-01-10T19:03:13;100363.13;;;5.83;79.40
75923;BME280;64602;47.542;19.090;2023-01-10T19:08:15;100366.22;;;5.79;79.68
75923;BME280;64602;47.542;19.090;2023-01-10T19:13:18;100354.47;;;5.74;80.07
75923;BME280;64602;47.542;19.090;2023-01-10T19:18:20;100369.44;;;5.70;80.11
75923;BME280;64602;47.542;19.090;2023-01-10T19:23:22;100366.37;;;5.66;80.30
75923;BME280;64602;47.542;19.090;2023-01-10T19:28:27;100367.03;;;5.62;80.66
75923;BME280;64602;47.542;19.090;2023-01-10T19:33:34;100379.00;;;5.66;80.87
75923;BME280;64602;47.542;19.090;2023-01-10T19:38:38;100382.13;;;5.63;80.59
75923;BME280;64602;47.542;19.090;2023-01-10T19:43:40;100384.66;;;5.57;80.81
75923;BME280;64602;47.542;19.090;2023-01-10T19:48:42;100393.53;;;5.58;80.44
75923;BME280;64602;47.542;19.090;2023-01-10T19:53:44;100413.41;;;5.64;80.70
75923;BME280;64602;47.542;19.090;2023-01-10T19:58:48;100407.00;;;5.58;80.74
75923;BME280;64602;47.542;19.090;2023-01-10T20:03:51;100416.69;;;5.66;80.19
75923;BME280;64602;47.542;19.090;2023-01-10T20:08:53;100411.31;;;5.66;79.74
75923;BME280;64602;47.542;19.090;2023-01-10T20:13:55;100428.28;;;5.66;79.73
75923;BME280;64602;47.542;19.090;2023-01-10T20:18:58;100415.28;;;5.63;79.32
75923;BME280;64602;47.542;19.090;2023-01-10T20:24:00;100416.28;;;5.62;79.46
75923;BME280;64602;47.542;19.090;2023-01-10T20:29:03;100428.66;;;5.70;78.93
75923;BME280;64602;47.542;19.090;2023-01-10T20:34:05;100429.72;;;5.69;78.97
75923;BME280;64602;47.542;19.090;2023-01-10T20:39:07;100427.69;;;5.64;78.39
75923;BME280;64602;47.542;19.090;2023-01-10T20:44:09;100432.25;;;5.64;78.70
75923;BME280;64602;47.542;19.090;2023-01-10T20:49:11;100450.44;;;5.68;78.61
75923;BME280;64602;47.542;19.090;2023-01-10T20:54:14;100460.37;;;5.68;78.44
75923;BME280;64602;47.542;19.090;2023-01-10T20:59:16;100460.59;;;5.66;77.53
75923;BME280;64602;47.542;19.090;2023-01-10T21:04:19;100458.34;;;5.63;77.95
75923;BME280;64602;47.542;19.090;2023-01-10T21:09:21;100459.78;;;5.66;77.76
75923;BME280;64602;47.542;19.090;2023-01-10T21:14:23;100462.88;;;5.63;77.80
75923;BME280;64602;47.542;19.090;2023-01-10T21:19:25;100443.50;;;5.54;77.72
75923;BME280;64602;47.542;19.090;2023-01-10T21:24:27;100464.37;;;5.59;77.99
75923;BME280;64602;47.542;19.090;2023-01-10T21:29:29;100470.41;;;5.54;78.03
